createdAt,value
2022-11-16T00:01:25.428Z,18.52
2022-11-16T00:03:53.577Z,19.08
2022-11-16T00:06:20.727Z,20.67
2022-11-16T00:09:10.003Z,18.88
2022-11-16T00:11:37.405Z,18.80
2022-11-16T00:14:04.813Z,19.67
2022-11-16T00:16:31.486Z,18.05
2022-11-16T00:19:00.241Z,20.70
2022-11-16T00:21:27.789Z,20.60
2022-11-16T00:23:54.530Z,20.40
2022-11-16T00:26:21.605Z,20.77
2022-11-16T00:28:48.498Z,20.83
2022-11-16T00:31:15.314Z,20.27
2022-11-16T00:33:42.197Z,20.70
2022-11-16T00:36:11.211Z,21.70
2022-11-16T00:38:38.067Z,21.60
2022-11-16T00:41:05.537Z,22.05
2022-11-16T00:43:32.115Z,20.58
2022-11-16T00:45:58.805Z,21.05
2022-11-16T00:48:25.796Z,21.58
2022-11-16T00:50:52.327Z,22.60
2022-11-16T00:53:20.440Z,20.77
2022-11-16T00:55:48.196Z,20.95
2022-11-16T00:58:16.711Z,20.95
2022-11-16T01:00:45.673Z,21.52
2022-11-16T01:03:12.314Z,20.38
2022-11-16T01:05:38.979Z,21.98
2022-11-16T01:08:07.143Z,20.50
2022-11-16T01:10:33.946Z,21.15
2022-11-16T01:13:01.864Z,20.13
2022-11-16T01:15:28.305Z,23.25
2022-11-16T01:17:56.395Z,20.63
2022-11-16T01:20:26.317Z,21.23
2022-11-16T01:22:53.851Z,22.48
2022-11-16T01:25:20.778Z,21.05
2022-11-16T01:27:47.321Z,20.70
2022-11-16T01:30:21.972Z,22.52
2022-11-16T01:33:02.200Z,22.52
2022-11-16T01:35:29.159Z,22.92
2022-11-16T01:37:55.540Z,22.52
2022-11-16T01:40:22.491Z,23.40
2022-11-16T01:42:48.971Z,22.10
2022-11-16T01:45:23.315Z,20.65
2022-11-16T01:47:54.372Z,21.48
2022-11-16T01:50:24.722Z,21.05
2022-11-16T01:53:02.237Z,22.77
2022-11-16T01:55:36.995Z,22.13
2022-11-16T01:58:22.977Z,21.85
2022-11-16T02:00:55.225Z,22.63
2022-11-16T02:03:30.134Z,23.13
2022-11-16T02:06:08.085Z,22.00
2022-11-16T02:09:12.827Z,22.98
2022-11-16T02:12:05.491Z,21.85
2022-11-16T02:15:06.871Z,23.35
2022-11-16T02:17:41.167Z,21.65
2022-11-16T02:20:34.790Z,23.35
2022-11-16T02:23:11.217Z,22.42
2022-11-16T02:25:59.865Z,24.63
2022-11-16T02:28:48.485Z,23.52
2022-11-16T02:31:29.856Z,23.13
2022-11-16T02:33:59.082Z,24.70
2022-11-16T02:36:26.073Z,25.25
2022-11-16T02:39:04.880Z,25.23
2022-11-16T02:41:37.513Z,25.73
2022-11-16T02:44:11.913Z,25.83
2022-11-16T02:46:40.319Z,23.85
2022-11-16T02:49:13.314Z,25.10
2022-11-16T02:51:41.283Z,25.60
2022-11-16T02:54:19.255Z,26.00
2022-11-16T02:57:02.145Z,25.83
2022-11-16T02:59:36.446Z,24.73
2022-11-16T03:02:22.522Z,25.75
2022-11-16T03:04:54.803Z,24.52
2022-11-16T03:07:27.344Z,27.20
2022-11-16T03:09:56.547Z,25.27
2022-11-16T03:12:28.335Z,27.33
2022-11-16T03:14:59.188Z,25.85
2022-11-16T03:17:31.181Z,26.55
2022-11-16T03:20:09.505Z,25.20
2022-11-16T03:22:47.443Z,25.75
2022-11-16T03:25:17.899Z,25.55
2022-11-16T03:27:55.047Z,26.00
2022-11-16T03:30:25.837Z,26.23
2022-11-16T03:33:22.610Z,25.85
2022-11-16T03:36:03.739Z,25.63
2022-11-16T03:38:34.770Z,25.13
2022-11-16T03:41:07.245Z,24.10
2022-11-16T03:43:34.930Z,24.75
2022-11-16T03:46:02.853Z,23.98
2022-11-16T03:48:35.936Z,24.35
2022-11-16T03:51:09.233Z,23.80
2022-11-16T03:53:36.118Z,24.60
2022-11-16T03:56:03.229Z,25.52
2022-11-16T03:58:29.799Z,24.40
2022-11-16T04:00:57.078Z,24.10
2022-11-16T04:03:23.860Z,23.88
2022-11-16T04:06:29.154Z,23.88
2022-11-16T04:09:15.160Z,24.58
2022-11-16T04:12:00.043Z,23.52
2022-11-16T04:14:47.373Z,22.90
2022-11-16T04:17:37.526Z,23.80
2022-11-16T04:20:23.989Z,23.67
2022-11-16T04:23:24.945Z,24.23
2022-11-16T04:25:52.637Z,24.15
2022-11-16T04:28:26.974Z,25.00
2022-11-16T04:31:20.458Z,24.27
2022-11-16T04:34:24.999Z,24.05
2022-11-16T04:37:13.411Z,22.65
2022-11-16T04:39:40.607Z,23.30
2022-11-16T04:42:17.106Z,22.85
2022-11-16T04:45:04.451Z,22.15
2022-11-16T04:47:40.447Z,22.10
2022-11-16T04:50:07.315Z,22.15
2022-11-16T04:52:33.763Z,22.75
2022-11-16T04:55:00.260Z,22.33
2022-11-16T04:57:28.138Z,22.67
2022-11-16T04:59:55.366Z,22.58
2022-11-16T05:02:21.730Z,23.23
2022-11-16T05:04:52.487Z,22.77
2022-11-16T05:07:20.104Z,21.25
2022-11-16T05:09:48.490Z,22.02
2022-11-16T05:12:24.343Z,23.38
2022-11-16T05:14:55.299Z,23.98
2022-11-16T05:17:25.352Z,22.40
2022-11-16T05:20:10.921Z,22.52
2022-11-16T05:22:45.015Z,23.45
2022-11-16T05:25:11.644Z,22.20
2022-11-16T05:27:38.206Z,22.42
2022-11-16T05:30:06.243Z,22.10
2022-11-16T05:32:33.449Z,20.98
2022-11-16T05:35:00.654Z,21.63
2022-11-16T05:37:27.235Z,22.20
2022-11-16T05:39:54.878Z,21.70
2022-11-16T05:42:25.400Z,21.75
2022-11-16T05:44:52.323Z,22.73
2022-11-16T05:47:18.752Z,22.58
2022-11-16T05:49:45.200Z,22.48
2022-11-16T05:52:13.067Z,22.45
2022-11-16T05:54:44.806Z,21.73
2022-11-16T05:57:11.373Z,22.27
2022-11-16T05:59:38.504Z,22.63
2022-11-16T06:02:05.506Z,21.98
2022-11-16T06:04:33.625Z,22.88
2022-11-16T06:07:00.473Z,23.10
2022-11-16T06:09:31.007Z,22.30
2022-11-16T06:12:04.156Z,23.67
2022-11-16T06:14:30.830Z,22.02
2022-11-16T06:16:57.822Z,23.33
2022-11-16T06:19:28.223Z,22.15
2022-11-16T06:21:57.904Z,21.75
2022-11-16T06:24:26.157Z,21.98
2022-11-16T06:26:52.660Z,22.70
2022-11-16T06:29:19.092Z,22.33
2022-11-16T06:31:45.470Z,22.13
2022-11-16T06:34:12.749Z,21.38
2022-11-16T06:36:39.183Z,20.25
2022-11-16T06:39:05.690Z,20.92
2022-11-16T06:41:41.075Z,21.75
2022-11-16T06:44:09.085Z,20.95
2022-11-16T06:46:38.442Z,20.80
2022-11-16T06:49:04.879Z,20.48
2022-11-16T06:51:33.135Z,22.02
2022-11-16T06:53:59.676Z,20.70
2022-11-16T06:56:27.029Z,21.65
2022-11-16T06:58:57.445Z,20.52
2022-11-16T07:01:26.525Z,19.88
2022-11-16T07:03:58.570Z,19.30
2022-11-16T07:06:25.960Z,21.45
2022-11-16T07:08:52.397Z,20.45
2022-11-16T07:11:23.789Z,20.70
2022-11-16T07:13:51.031Z,20.67
2022-11-16T07:16:17.511Z,20.67
2022-11-16T07:18:50.625Z,19.88
2022-11-16T07:21:17.833Z,21.35
2022-11-16T07:23:45.302Z,19.38
2022-11-16T07:26:16.463Z,20.15
2022-11-16T07:29:01.116Z,20.20
2022-11-16T07:31:28.301Z,21.40
2022-11-16T07:34:24.368Z,21.25
2022-11-16T07:37:01.733Z,21.65
2022-11-16T07:39:28.142Z,21.05
2022-11-16T07:41:55.423Z,21.13
2022-11-16T07:44:28.906Z,20.77
2022-11-16T07:47:05.823Z,21.67
2022-11-16T07:49:33.554Z,22.17
2022-11-16T07:52:08.489Z,20.98
2022-11-16T07:55:05.633Z,22.00
2022-11-16T07:57:32.937Z,21.95
2022-11-16T08:00:05.004Z,22.95
2022-11-16T08:02:39.916Z,21.67
2022-11-16T08:05:09.079Z,21.70
2022-11-16T08:07:38.292Z,23.95
2022-11-16T08:10:05.909Z,23.90
2022-11-16T08:12:32.620Z,24.23
2022-11-16T08:14:59.059Z,23.40
2022-11-16T08:17:25.426Z,21.95
2022-11-16T08:19:53.642Z,23.27
2022-11-16T08:22:20.856Z,25.25
2022-11-16T08:24:47.726Z,23.20
2022-11-16T08:27:16.895Z,24.98
2022-11-16T08:29:45.433Z,23.25
2022-11-16T08:32:12.966Z,22.45
2022-11-16T08:34:39.538Z,22.77
2022-11-16T08:37:06.050Z,24.10
2022-11-16T08:39:38.534Z,22.85
2022-11-16T08:42:05.378Z,23.35
2022-11-16T08:44:31.950Z,23.88
2022-11-16T08:47:02.265Z,24.58
2022-11-16T08:49:35.544Z,23.90
2022-11-16T08:52:02.061Z,22.75
2022-11-16T08:54:30.275Z,21.17
2022-11-16T08:56:57.057Z,22.17
2022-11-16T08:59:23.614Z,22.15
2022-11-16T09:01:52.364Z,23.17
2022-11-16T09:04:18.865Z,23.30
2022-11-16T09:06:45.991Z,22.75
2022-11-16T09:09:12.373Z,23.17
2022-11-16T09:11:39.070Z,22.00
2022-11-16T09:14:05.491Z,22.67
2022-11-16T09:16:31.978Z,22.30
2022-11-16T09:18:58.342Z,23.92
2022-11-16T09:21:27.464Z,23.48
2022-11-16T09:23:55.423Z,24.80
2022-11-16T09:26:23.207Z,24.65
2022-11-16T09:28:58.065Z,23.55
2022-11-16T09:31:27.408Z,23.88
2022-11-16T09:33:58.068Z,23.58
2022-11-16T09:36:26.125Z,24.90
2022-11-16T09:41:55.823Z,25.98
2022-11-16T09:44:40.766Z,26.77
2022-11-16T09:47:18.349Z,25.77
2022-11-16T09:49:52.215Z,25.08
2022-11-16T09:52:41.108Z,25.80
2022-11-16T09:55:26.218Z,25.17
2022-11-16T09:57:59.890Z,24.27
2022-11-16T10:00:27.925Z,25.08
2022-11-16T10:03:09.542Z,24.55
2022-11-16T10:05:43.139Z,26.27
2022-11-16T10:08:15.563Z,25.60
2022-11-16T10:10:55.868Z,25.50
2022-11-16T10:13:42.711Z,24.92
2022-11-16T10:16:34.811Z,24.23
2022-11-16T10:19:36.205Z,24.88
2022-11-16T10:22:17.871Z,25.55
2022-11-16T10:24:58.565Z,27.05
2022-11-16T10:27:41.476Z,25.83
2022-11-16T10:30:19.633Z,28.15
2022-11-16T10:32:59.310Z,27.15
2022-11-16T10:35:31.974Z,26.77
2022-11-16T10:38:00.266Z,27.25
2022-11-16T10:40:36.775Z,26.42
2022-11-16T10:43:14.337Z,26.08
2022-11-16T10:46:12.583Z,27.23
2022-11-16T10:48:51.357Z,25.95
2022-11-16T10:51:18.011Z,26.10
2022-11-16T10:53:44.544Z,27.40
2022-11-16T10:56:20.255Z,28.63
2022-11-16T10:58:55.736Z,26.33
2022-11-16T11:01:39.058Z,25.77
2022-11-16T11:04:26.054Z,27.23
2022-11-16T11:06:57.576Z,25.20
2022-11-16T11:09:35.930Z,27.10
2022-11-16T11:12:35.162Z,26.75
2022-11-16T11:15:12.656Z,26.63
2022-11-16T11:17:45.133Z,26.05
2022-11-16T11:20:14.810Z,24.45
2022-11-16T11:22:47.140Z,27.33
2022-11-16T11:25:21.838Z,25.45
2022-11-16T11:27:49.478Z,27.10
2022-11-16T11:30:21.401Z,25.80
2022-11-16T11:32:48.880Z,26.98
2022-11-16T11:35:30.261Z,27.38
2022-11-16T11:38:03.324Z,25.65
2022-11-16T11:40:32.757Z,27.63
2022-11-16T11:43:05.468Z,27.73
2022-11-16T11:45:43.139Z,26.65
2022-11-16T11:48:21.952Z,27.42
2022-11-16T11:50:54.949Z,27.75
2022-11-16T11:53:36.086Z,28.05
2022-11-16T11:56:02.939Z,28.00
2022-11-16T11:58:32.779Z,27.60
2022-11-16T12:01:03.354Z,28.90
2022-11-16T12:03:47.042Z,27.38
2022-11-16T12:06:22.429Z,28.48
2022-11-16T12:08:58.250Z,26.80
2022-11-16T12:11:52.932Z,29.27
2022-11-16T12:14:46.136Z,27.67
2022-11-16T12:17:24.216Z,28.27
2022-11-16T12:20:00.886Z,30.63
2022-11-16T12:22:59.721Z,30.15
2022-11-16T12:25:44.461Z,28.75
2022-11-16T12:28:19.878Z,30.27
2022-11-16T12:31:21.781Z,28.13
2022-11-16T12:34:26.836Z,29.05
2022-11-16T12:37:34.685Z,30.48
2022-11-16T12:40:21.663Z,31.35
2022-11-16T12:43:03.398Z,30.38
2022-11-16T12:45:38.211Z,29.30
2022-11-16T12:48:23.914Z,29.77
2022-11-16T12:50:55.145Z,29.02
2022-11-16T12:53:52.623Z,28.88
2022-11-16T12:56:48.702Z,29.88
2022-11-16T12:59:27.507Z,29.05
2022-11-16T13:02:31.693Z,29.58
2022-11-16T13:05:23.351Z,28.90
2022-11-16T13:07:57.436Z,30.23
2022-11-16T13:10:35.130Z,29.05
2022-11-16T13:13:30.114Z,29.80
2022-11-16T13:15:58.626Z,30.58
2022-11-16T13:18:27.305Z,29.48
2022-11-16T13:21:11.229Z,27.50
2022-11-16T13:24:07.992Z,28.63
2022-11-16T13:26:54.605Z,27.50
2022-11-16T13:29:39.623Z,29.42
2022-11-16T13:32:18.502Z,27.83
2022-11-16T13:34:45.969Z,28.05
2022-11-16T13:37:37.818Z,27.63
2022-11-16T13:40:04.882Z,25.55
2022-11-16T13:42:34.200Z,27.88
2022-11-16T13:45:08.583Z,26.88
2022-11-16T13:47:37.081Z,26.70
2022-11-16T13:50:06.961Z,26.63
2022-11-16T13:55:35.550Z,27.08
2022-11-16T13:58:05.375Z,25.85
2022-11-16T14:00:38.645Z,25.70
2022-11-16T14:03:38.380Z,27.48
2022-11-16T14:06:25.595Z,26.42
2022-11-16T14:08:54.485Z,24.60
2022-11-16T14:11:38.763Z,24.85
2022-11-16T14:14:11.881Z,24.42
2022-11-16T14:16:51.104Z,25.17
2022-11-16T14:19:49.167Z,25.45
2022-11-16T14:22:51.021Z,24.52
2022-11-16T14:25:31.806Z,23.90
2022-11-16T14:28:26.786Z,23.27
2022-11-16T14:31:09.706Z,25.17
2022-11-16T14:33:37.767Z,24.98
2022-11-16T14:36:09.230Z,26.38
2022-11-16T14:38:38.641Z,24.75
2022-11-16T14:41:07.233Z,25.58
2022-11-16T14:43:49.567Z,25.13
2022-11-16T14:46:22.203Z,25.17
2022-11-16T14:48:49.447Z,24.92
2022-11-16T14:51:31.668Z,25.25
2022-11-16T14:54:02.499Z,22.48
2022-11-16T14:56:29.039Z,23.35
2022-11-16T14:58:57.818Z,26.30
2022-11-16T15:01:28.246Z,24.45
2022-11-16T15:04:06.062Z,22.75
2022-11-16T15:06:40.569Z,22.48
2022-11-16T15:09:07.108Z,23.38
2022-11-16T15:12:02.409Z,22.05
2022-11-16T15:14:31.831Z,24.58
2022-11-16T15:16:59.908Z,23.38
2022-11-16T15:19:30.283Z,23.05
2022-11-16T15:21:59.015Z,22.27
2022-11-16T15:24:33.814Z,21.33
2022-11-16T15:27:26.902Z,20.63
2022-11-16T15:29:53.363Z,21.73
2022-11-16T15:32:19.752Z,20.98
2022-11-16T15:34:50.399Z,19.38
2022-11-16T15:37:27.283Z,20.73
2022-11-16T15:39:54.222Z,20.73
2022-11-16T15:42:22.612Z,18.45
2022-11-16T15:44:49.895Z,18.95
2022-11-16T15:47:16.823Z,18.35
2022-11-16T15:49:46.450Z,18.80
2022-11-16T15:52:12.900Z,18.98
2022-11-16T15:54:57.771Z,17.00
2022-11-16T15:57:24.909Z,17.05
2022-11-16T15:59:56.434Z,15.88
2022-11-16T16:02:27.458Z,16.30
2022-11-16T16:04:53.899Z,15.10
2022-11-16T16:07:40.797Z,15.55
2022-11-16T16:10:27.766Z,15.30
2022-11-16T16:13:00.105Z,14.88
2022-11-16T16:15:29.903Z,14.80
2022-11-16T16:17:57.780Z,14.00
2022-11-16T16:20:27.524Z,13.25
2022-11-16T16:23:05.339Z,13.85
2022-11-16T16:25:33.941Z,13.43
2022-11-16T16:28:00.616Z,13.10
2022-11-16T16:30:29.072Z,13.18
2022-11-16T16:32:55.772Z,13.60
2022-11-16T16:35:24.412Z,13.38
2022-11-16T16:37:56.578Z,11.98
2022-11-16T16:40:22.943Z,12.07
2022-11-16T16:42:49.368Z,12.30
2022-11-16T16:45:20.076Z,11.02
2022-11-16T16:47:46.634Z,11.25
2022-11-16T16:50:13.357Z,11.35
2022-11-16T16:52:39.793Z,11.68
2022-11-16T16:55:06.441Z,12.07
2022-11-16T16:57:32.896Z,13.52
2022-11-16T16:59:59.410Z,11.98
2022-11-16T17:02:26.700Z,11.60
2022-11-16T17:04:53.062Z,11.93
2022-11-16T17:07:19.554Z,11.70
2022-11-16T17:09:46.064Z,11.25
2022-11-16T17:12:12.698Z,12.10
2022-11-16T17:14:39.782Z,10.00
2022-11-16T17:17:06.106Z,12.75
2022-11-16T17:19:32.570Z,11.45
2022-11-16T17:22:00.015Z,11.05
2022-11-16T17:24:26.518Z,10.25
2022-11-16T17:26:53.353Z,11.32
2022-11-16T17:29:19.804Z,10.43
2022-11-16T17:31:47.122Z,9.70
2022-11-16T17:34:14.412Z,9.52
2022-11-16T17:36:41.875Z,11.55
2022-11-16T17:39:08.491Z,9.25
2022-11-16T17:41:34.971Z,10.38
2022-11-16T17:44:01.378Z,9.75
2022-11-16T17:46:28.905Z,8.70
2022-11-16T17:48:55.552Z,9.73
2022-11-16T17:51:24.272Z,9.18
2022-11-16T17:53:50.734Z,9.88
2022-11-16T17:56:20.006Z,9.05
2022-11-16T17:58:46.518Z,8.70
2022-11-16T18:01:13.639Z,9.40
2022-11-16T18:03:40.214Z,9.25
2022-11-16T18:06:09.378Z,8.77
2022-11-16T18:08:36.762Z,9.32
2022-11-16T18:11:13.087Z,8.07
2022-11-16T18:13:39.670Z,8.77
2022-11-16T18:16:09.690Z,7.78
2022-11-16T18:18:36.933Z,7.63
2022-11-16T18:21:03.467Z,7.35
2022-11-16T18:23:29.950Z,8.13
2022-11-16T18:25:56.642Z,8.10
2022-11-16T18:28:23.286Z,7.95
2022-11-16T18:30:49.700Z,8.50
2022-11-16T18:33:16.563Z,8.52
2022-11-16T18:35:43.812Z,8.52
2022-11-16T18:38:13.146Z,9.52
2022-11-16T18:40:42.295Z,8.77
2022-11-16T18:43:12.992Z,8.68
2022-11-16T18:45:39.348Z,9.48
2022-11-16T18:48:05.967Z,8.52
2022-11-16T18:50:32.441Z,7.97
2022-11-16T18:52:58.874Z,9.68
2022-11-16T18:55:25.238Z,9.30
2022-11-16T18:57:51.648Z,9.55
2022-11-16T19:00:19.420Z,9.32
2022-11-16T19:02:45.782Z,9.05
2022-11-16T19:05:12.297Z,10.05
2022-11-16T19:07:38.823Z,9.75
2022-11-16T19:10:05.764Z,9.75
2022-11-16T19:12:32.126Z,9.57
2022-11-16T19:14:58.673Z,10.38
2022-11-16T19:17:25.130Z,11.45
2022-11-16T19:19:51.499Z,9.82
2022-11-16T19:22:18.337Z,9.80
2022-11-16T19:24:44.699Z,10.73
2022-11-16T19:27:12.111Z,10.50
2022-11-16T19:29:38.495Z,11.25
2022-11-16T19:32:05.037Z,10.73
2022-11-16T19:34:33.501Z,11.05
2022-11-16T19:37:00.220Z,11.85
2022-11-16T19:39:26.698Z,11.05
2022-11-16T19:41:53.051Z,11.40
2022-11-16T19:44:20.052Z,11.05
2022-11-16T19:46:46.563Z,11.57
2022-11-16T19:49:19.925Z,11.15
2022-11-16T19:51:46.723Z,10.70
2022-11-16T19:54:14.782Z,10.73
2022-11-16T19:56:42.257Z,11.32
2022-11-16T19:59:09.200Z,11.55
2022-11-16T20:01:35.893Z,10.00
2022-11-16T20:04:03.563Z,9.52
2022-11-16T20:06:35.342Z,9.32
2022-11-16T20:09:08.468Z,8.43
2022-11-16T20:11:37.013Z,8.48
2022-11-16T20:14:05.331Z,7.55
2022-11-16T20:16:38.621Z,8.00
2022-11-16T20:19:07.590Z,8.85
2022-11-16T20:21:36.968Z,7.85
2022-11-16T20:24:06.749Z,7.90
2022-11-16T20:26:35.685Z,8.32
2022-11-16T20:29:02.860Z,8.15
2022-11-16T20:31:31.281Z,7.10
2022-11-16T20:34:03.188Z,6.60
2022-11-16T20:36:31.146Z,6.95
2022-11-16T20:38:58.829Z,7.90
2022-11-16T20:41:33.069Z,6.70
2022-11-16T20:44:01.495Z,6.72
2022-11-16T20:46:29.907Z,7.00
2022-11-16T20:48:59.202Z,6.20
2022-11-16T20:51:26.049Z,6.22
2022-11-16T20:53:52.769Z,6.18
2022-11-16T20:56:20.447Z,6.32
2022-11-16T20:58:48.355Z,6.22
2022-11-16T21:01:20.908Z,6.28
2022-11-16T21:03:47.350Z,5.22
2022-11-16T21:06:15.119Z,5.57
2022-11-16T21:08:41.597Z,5.88
2022-11-16T21:11:19.838Z,4.80
2022-11-16T21:14:06.157Z,5.47
2022-11-16T21:16:33.669Z,5.80
2022-11-16T21:19:00.656Z,5.75
2022-11-16T21:21:27.253Z,5.90
2022-11-16T21:23:55.027Z,5.43
2022-11-16T21:26:24.156Z,5.45
2022-11-16T21:28:51.303Z,5.18
2022-11-16T21:31:25.599Z,5.40
2022-11-16T21:33:53.169Z,5.00
2022-11-16T21:36:24.774Z,5.45
2022-11-16T21:38:51.778Z,5.13
2022-11-16T21:41:19.677Z,5.70
2022-11-16T21:43:46.098Z,5.30
2022-11-16T21:46:14.646Z,4.63
2022-11-16T21:48:41.342Z,5.35
2022-11-16T21:51:08.935Z,4.72
2022-11-16T21:53:36.219Z,5.53
2022-11-16T21:56:04.703Z,5.03
2022-11-16T21:58:31.363Z,5.03
2022-11-16T22:00:59.852Z,4.80
2022-11-16T22:03:30.890Z,4.60
2022-11-16T22:06:21.467Z,4.30
2022-11-16T22:08:48.204Z,4.07
2022-11-16T22:11:15.520Z,4.28
2022-11-16T22:13:42.414Z,4.32
2022-11-16T22:16:11.459Z,4.00
2022-11-16T22:18:38.233Z,4.22
2022-11-16T22:21:04.886Z,4.53
2022-11-16T22:23:31.802Z,3.95
2022-11-16T22:26:03.831Z,3.90
2022-11-16T22:28:31.775Z,3.72
2022-11-16T22:31:06.784Z,3.28
2022-11-16T22:33:35.008Z,3.75
2022-11-16T22:36:01.989Z,3.63
2022-11-16T22:38:28.646Z,3.50
2022-11-16T22:40:57.035Z,3.70
2022-11-16T22:43:28.620Z,3.60
2022-11-16T22:45:58.867Z,3.60
2022-11-16T22:48:36.513Z,2.92
2022-11-16T22:51:23.941Z,3.95
2022-11-16T22:53:54.668Z,3.50
2022-11-16T22:56:21.114Z,3.65
2022-11-16T22:58:48.698Z,3.53
2022-11-16T23:01:15.293Z,3.42
2022-11-16T23:03:41.904Z,3.80
2022-11-16T23:06:10.300Z,3.25
2022-11-16T23:08:36.915Z,3.72
2022-11-16T23:11:25.807Z,3.55
2022-11-16T23:14:12.518Z,3.53
2022-11-16T23:16:39.887Z,3.28
2022-11-16T23:19:26.283Z,3.65
2022-11-16T23:22:11.282Z,3.38
2022-11-16T23:24:56.126Z,3.47
2022-11-16T23:27:31.763Z,3.30
2022-11-16T23:30:01.106Z,3.50
2022-11-16T23:32:28.783Z,3.63
2022-11-16T23:34:55.158Z,3.42
2022-11-16T23:37:21.965Z,3.53
2022-11-16T23:39:48.449Z,3.83
2022-11-16T23:42:40.971Z,4.10
2022-11-16T23:45:07.621Z,3.65
2022-11-16T23:47:33.956Z,3.85
2022-11-16T23:50:00.384Z,4.00
2022-11-16T23:52:26.816Z,3.55
2022-11-16T23:54:53.535Z,3.83
2022-11-16T23:57:20.184Z,3.97
2022-11-16T23:59:46.567Z,3.40
